SAS3VG KLAS-KLAX
Flight info
| Callsign | SAS3VG |
|---|---|
| Flight time | 0h 38m |
| Altitude | 28000 |
| Route | RADYR2 BLAQQ SHTNR ANJLL4 |
| Aircraft | A359/H-SDE2E3GHIJ3J4J5LM1ORWXY/LB1D1 |
Departure
| Time | 2026-05-07 21:51 |
|---|---|
| Airport | Harry Reid International Airport (KLAS) |
Arrival
| Time | 2026-05-07 22:29 |
|---|---|
| Airport | Los Angeles International Airport (KLAX) |
| Time | Latitude | Longitude | Altitude | Speed | Heading |
|---|---|---|---|---|---|
| 2026-05-07 21:30 | 36.08533 | -115.13285 | 2099 ft | 0 kts | 0° |
| 2026-05-07 21:36 | 36.08520 | -115.13286 | 2099 ft | 2 kts | 14° |
| 2026-05-07 21:36 | 36.08504 | -115.13293 | 2100 ft | 2 kts | 27° |
| 2026-05-07 21:37 | 36.08490 | -115.13304 | 2100 ft | 2 kts | 43° |
| 2026-05-07 21:37 | 36.08479 | -115.13319 | 2101 ft | 2 kts | 55° |
| 2026-05-07 21:37 | 36.08471 | -115.13336 | 2100 ft | 2 kts | 65° |
| 2026-05-07 21:37 | 36.08465 | -115.13355 | 2101 ft | 2 kts | 72° |
| 2026-05-07 21:38 | 36.08461 | -115.13374 | 2100 ft | 2 kts | 77° |
| 2026-05-07 21:38 | 36.08458 | -115.13394 | 2099 ft | 2 kts | 82° |
| 2026-05-07 21:38 | 36.08456 | -115.13415 | 2099 ft | 2 kts | 84° |
| 2026-05-07 21:38 | 36.08453 | -115.13434 | 2100 ft | 2 kts | 78° |
| 2026-05-07 21:39 | 36.08450 | -115.13454 | 2101 ft | 2 kts | 80° |
| 2026-05-07 21:39 | 36.08447 | -115.13474 | 2100 ft | 2 kts | 81° |
| 2026-05-07 21:39 | 36.08445 | -115.13494 | 2099 ft | 2 kts | 82° |
| 2026-05-07 21:39 | 36.08443 | -115.13513 | 2099 ft | 1 kts | 86° |
| 2026-05-07 21:40 | 36.08443 | -115.13518 | 2099 ft | 0 kts | 89° |
| 2026-05-07 21:41 | 36.08439 | -115.13490 | 2099 ft | 9 kts | 105° |
| 2026-05-07 21:41 | 36.08404 | -115.13429 | 2099 ft | 9 kts | 130° |
| 2026-05-07 21:41 | 36.08355 | -115.13364 | 2099 ft | 12 kts | 135° |
| 2026-05-07 21:42 | 36.08297 | -115.13301 | 2098 ft | 10 kts | 143° |
| 2026-05-07 21:42 | 36.08218 | -115.13292 | 2094 ft | 14 kts | 179° |
| 2026-05-07 21:42 | 36.08117 | -115.13292 | 2094 ft | 13 kts | 180° |
| 2026-05-07 21:42 | 36.08020 | -115.13292 | 2094 ft | 15 kts | 180° |
| 2026-05-07 21:43 | 36.07907 | -115.13291 | 2094 ft | 17 kts | 180° |
| 2026-05-07 21:43 | 36.07831 | -115.13212 | 2092 ft | 20 kts | 101° |
| 2026-05-07 21:43 | 36.07828 | -115.13008 | 2082 ft | 28 kts | 90° |
| 2026-05-07 21:43 | 36.07831 | -115.12751 | 2074 ft | 32 kts | 89° |
| 2026-05-07 21:44 | 36.07829 | -115.12479 | 2064 ft | 29 kts | 90° |
| 2026-05-07 21:44 | 36.07826 | -115.12293 | 2060 ft | 16 kts | 101° |
| 2026-05-07 21:44 | 36.07777 | -115.12190 | 2057 ft | 10 kts | 129° |
| 2026-05-07 21:44 | 36.07761 | -115.12164 | 2056 ft | 0 kts | 129° |
| 2026-05-07 21:49 | 36.07759 | -115.12162 | 2056 ft | 2 kts | 129° |
| 2026-05-07 21:49 | 36.07707 | -115.12126 | 2056 ft | 12 kts | 177° |
| 2026-05-07 21:49 | 36.07651 | -115.12134 | 2054 ft | 3 kts | 226° |
| 2026-05-07 21:49 | 36.07645 | -115.12173 | 2055 ft | 8 kts | 264° |
| 2026-05-07 21:50 | 36.07643 | -115.12375 | 2060 ft | 50 kts | 270° |
| 2026-05-07 21:50 | 36.07642 | -115.13089 | 2088 ft | 114 kts | 270° |
| 2026-05-07 21:50 | 36.07641 | -115.14304 | 2103 ft | 168 kts | 270° |
| 2026-05-07 21:50 | 36.07645 | -115.15833 | 2669 ft | 174 kts | 270° |
| 2026-05-07 21:51 | 36.07668 | -115.17294 | 3526 ft | 170 kts | 271° |
| 2026-05-07 21:51 | 36.07703 | -115.18836 | 3885 ft | 190 kts | 271° |
| 2026-05-07 21:51 | 36.07737 | -115.20558 | 4228 ft | 212 kts | 271° |
| 2026-05-07 21:51 | 36.07552 | -115.22436 | 4573 ft | 234 kts | 257° |
| 2026-05-07 21:52 | 36.07133 | -115.24459 | 5080 ft | 249 kts | 252° |
| 2026-05-07 21:52 | 36.06257 | -115.26314 | 5821 ft | 254 kts | 227° |
| 2026-05-07 21:52 | 36.04747 | -115.27573 | 6287 ft | 274 kts | 201° |
| 2026-05-07 21:52 | 36.02868 | -115.28223 | 6917 ft | 283 kts | 194° |
| 2026-05-07 21:53 | 36.00942 | -115.28831 | 7731 ft | 288 kts | 197° |
| 2026-05-07 21:53 | 35.98996 | -115.29525 | 8565 ft | 294 kts | 198° |
| 2026-05-07 21:53 | 35.96979 | -115.30068 | 9418 ft | 301 kts | 192° |
| 2026-05-07 21:53 | 35.94897 | -115.30524 | 10289 ft | 306 kts | 193° |
| 2026-05-07 21:54 | 35.92750 | -115.31024 | 10784 ft | 325 kts | 193° |
| 2026-05-07 21:54 | 35.90482 | -115.31569 | 11136 ft | 346 kts | 193° |
| 2026-05-07 21:54 | 35.88056 | -115.32157 | 11528 ft | 364 kts | 193° |
| 2026-05-07 21:54 | 35.85536 | -115.32770 | 12145 ft | 373 kts | 192° |
| 2026-05-07 21:55 | 35.82970 | -115.33392 | 12855 ft | 379 kts | 191° |
| 2026-05-07 21:55 | 35.80376 | -115.34023 | 13677 ft | 381 kts | 191° |
| 2026-05-07 21:55 | 35.77762 | -115.34663 | 14328 ft | 386 kts | 191° |
| 2026-05-07 21:55 | 35.75105 | -115.35314 | 14957 ft | 392 kts | 191° |
| 2026-05-07 21:56 | 35.72414 | -115.35973 | 15590 ft | 397 kts | 191° |
| 2026-05-07 21:56 | 35.69689 | -115.36639 | 16256 ft | 402 kts | 191° |
| 2026-05-07 21:56 | 35.66971 | -115.37304 | 16917 ft | 406 kts | 191° |
| 2026-05-07 21:56 | 35.64183 | -115.37985 | 17615 ft | 411 kts | 191° |
| 2026-05-07 21:57 | 35.61347 | -115.38590 | 18296 ft | 416 kts | 185° |
| 2026-05-07 21:57 | 35.58442 | -115.38644 | 18891 ft | 420 kts | 176° |
| 2026-05-07 21:57 | 35.55507 | -115.38444 | 19501 ft | 425 kts | 175° |
| 2026-05-07 21:57 | 35.52542 | -115.38214 | 20106 ft | 429 kts | 175° |
| 2026-05-07 21:58 | 35.49547 | -115.37985 | 20722 ft | 434 kts | 175° |
| 2026-05-07 21:58 | 35.46510 | -115.37881 | 21332 ft | 439 kts | 182° |
| 2026-05-07 21:58 | 35.43471 | -115.38435 | 21953 ft | 445 kts | 195° |
| 2026-05-07 21:58 | 35.40578 | -115.39810 | 22601 ft | 449 kts | 207° |
| 2026-05-07 21:59 | 35.37824 | -115.41541 | 23209 ft | 454 kts | 208° |
| 2026-05-07 21:59 | 35.35023 | -115.43360 | 23800 ft | 458 kts | 208° |
| 2026-05-07 21:59 | 35.32191 | -115.45191 | 24338 ft | 462 kts | 208° |
| 2026-05-07 21:59 | 35.29330 | -115.47030 | 24899 ft | 466 kts | 208° |
| 2026-05-07 22:00 | 35.26444 | -115.48878 | 25424 ft | 470 kts | 208° |
| 2026-05-07 22:00 | 35.23533 | -115.50738 | 25958 ft | 474 kts | 208° |
| 2026-05-07 22:00 | 35.20599 | -115.52607 | 26504 ft | 478 kts | 208° |
| 2026-05-07 22:00 | 35.17634 | -115.54495 | 27027 ft | 482 kts | 208° |
| 2026-05-07 22:01 | 35.14662 | -115.56418 | 27547 ft | 485 kts | 210° |
| 2026-05-07 22:01 | 35.11867 | -115.58739 | 27917 ft | 487 kts | 221° |
| 2026-05-07 22:01 | 35.07028 | -115.64652 | 27991 ft | 510 kts | 228° |
| 2026-05-07 22:02 | 35.04575 | -115.67824 | 27985 ft | 515 kts | 228° |
| 2026-05-07 22:02 | 35.02110 | -115.70996 | 27984 ft | 516 kts | 227° |
| 2026-05-07 22:02 | 34.99638 | -115.74162 | 27985 ft | 516 kts | 227° |
| 2026-05-07 22:02 | 34.97157 | -115.77331 | 27977 ft | 516 kts | 227° |
| 2026-05-07 22:03 | 34.94679 | -115.80491 | 27974 ft | 516 kts | 227° |
| 2026-05-07 22:03 | 34.92198 | -115.83650 | 27966 ft | 516 kts | 227° |
| 2026-05-07 22:03 | 34.89749 | -115.86764 | 27965 ft | 516 kts | 227° |
| 2026-05-07 22:03 | 34.87265 | -115.89918 | 27960 ft | 516 kts | 227° |
| 2026-05-07 22:04 | 34.84781 | -115.93071 | 27957 ft | 516 kts | 227° |
| 2026-05-07 22:04 | 34.82289 | -115.96230 | 27953 ft | 516 kts | 227° |
| 2026-05-07 22:04 | 34.79806 | -115.99374 | 27953 ft | 515 kts | 227° |
| 2026-05-07 22:04 | 34.77320 | -116.02521 | 27946 ft | 516 kts | 227° |
| 2026-05-07 22:05 | 34.74841 | -116.05671 | 27943 ft | 516 kts | 227° |
| 2026-05-07 22:05 | 34.72368 | -116.08826 | 27949 ft | 516 kts | 227° |
| 2026-05-07 22:05 | 34.69891 | -116.11982 | 27945 ft | 516 kts | 227° |
| 2026-05-07 22:05 | 34.67412 | -116.15138 | 27945 ft | 516 kts | 227° |
| 2026-05-07 22:06 | 34.64968 | -116.18246 | 27949 ft | 516 kts | 227° |
| 2026-05-07 22:06 | 34.62487 | -116.21396 | 27948 ft | 516 kts | 227° |
| 2026-05-07 22:06 | 34.60005 | -116.24544 | 27950 ft | 516 kts | 227° |
| 2026-05-07 22:06 | 34.57523 | -116.27690 | 27943 ft | 516 kts | 227° |
| 2026-05-07 22:07 | 34.55042 | -116.30832 | 27947 ft | 515 kts | 227° |
| 2026-05-07 22:07 | 34.52565 | -116.33965 | 27852 ft | 514 kts | 227° |
| 2026-05-07 22:07 | 34.50097 | -116.37084 | 27606 ft | 512 kts | 227° |
| 2026-05-07 22:07 | 34.47632 | -116.40197 | 27352 ft | 511 kts | 227° |
| 2026-05-07 22:08 | 34.45179 | -116.43291 | 26893 ft | 506 kts | 227° |
| 2026-05-07 22:08 | 34.42823 | -116.46349 | 26246 ft | 501 kts | 231° |
| 2026-05-07 22:08 | 34.40861 | -116.49785 | 25722 ft | 491 kts | 243° |
| 2026-05-07 22:08 | 34.39318 | -116.53398 | 25595 ft | 475 kts | 245° |
| 2026-05-07 22:09 | 34.37871 | -116.56918 | 25447 ft | 460 kts | 245° |
| 2026-05-07 22:09 | 34.36469 | -116.60337 | 25277 ft | 447 kts | 245° |
| 2026-05-07 22:09 | 34.35102 | -116.63660 | 25092 ft | 435 kts | 245° |
| 2026-05-07 22:09 | 34.33768 | -116.66900 | 24813 ft | 427 kts | 245° |
| 2026-05-07 22:10 | 34.32448 | -116.70160 | 24630 ft | 441 kts | 246° |
| 2026-05-07 22:10 | 34.31080 | -116.73581 | 24581 ft | 462 kts | 246° |
| 2026-05-07 22:10 | 34.29680 | -116.77070 | 24519 ft | 455 kts | 246° |
| 2026-05-07 22:10 | 34.28337 | -116.80401 | 24333 ft | 443 kts | 246° |
| 2026-05-07 22:11 | 34.27279 | -116.83022 | 24152 ft | 426 kts | 246° |
| 2026-05-07 22:11 | 34.25959 | -116.86292 | 23621 ft | 425 kts | 246° |
| 2026-05-07 22:11 | 34.24664 | -116.89502 | 22980 ft | 424 kts | 245° |
| 2026-05-07 22:11 | 34.23377 | -116.92689 | 22459 ft | 420 kts | 245° |
| 2026-05-07 22:12 | 34.22098 | -116.95851 | 21901 ft | 417 kts | 245° |
| 2026-05-07 22:12 | 34.20948 | -116.99004 | 21181 ft | 404 kts | 252° |
| 2026-05-07 22:12 | 34.20042 | -117.02199 | 20560 ft | 401 kts | 254° |
| 2026-05-07 22:12 | 34.19176 | -117.05417 | 20051 ft | 404 kts | 253° |
| 2026-05-07 22:13 | 34.18323 | -117.08587 | 19556 ft | 401 kts | 254° |
| 2026-05-07 22:13 | 34.17460 | -117.11788 | 18932 ft | 397 kts | 253° |
| 2026-05-07 22:13 | 34.16608 | -117.14935 | 18260 ft | 391 kts | 254° |
| 2026-05-07 22:13 | 34.15766 | -117.18039 | 17607 ft | 387 kts | 253° |
| 2026-05-07 22:14 | 34.14918 | -117.21127 | 17117 ft | 388 kts | 253° |
| 2026-05-07 22:14 | 34.14069 | -117.24207 | 16559 ft | 383 kts | 253° |
| 2026-05-07 22:14 | 34.13234 | -117.27227 | 15862 ft | 376 kts | 253° |
| 2026-05-07 22:14 | 34.12421 | -117.30172 | 15288 ft | 376 kts | 253° |
| 2026-05-07 22:15 | 34.11596 | -117.33160 | 14777 ft | 374 kts | 252° |
| 2026-05-07 22:15 | 34.10778 | -117.36119 | 14334 ft | 370 kts | 252° |
| 2026-05-07 22:15 | 34.09983 | -117.39051 | 13809 ft | 366 kts | 253° |
| 2026-05-07 22:15 | 34.09256 | -117.41966 | 13153 ft | 360 kts | 254° |
| 2026-05-07 22:16 | 34.08547 | -117.44851 | 12775 ft | 358 kts | 255° |
| 2026-05-07 22:16 | 34.07836 | -117.47723 | 12513 ft | 356 kts | 255° |
| 2026-05-07 22:16 | 34.07045 | -117.50537 | 12025 ft | 354 kts | 250° |
| 2026-05-07 22:16 | 34.06120 | -117.53205 | 11651 ft | 342 kts | 249° |
| 2026-05-07 22:17 | 34.05189 | -117.55786 | 11339 ft | 335 kts | 248° |
| 2026-05-07 22:17 | 34.04275 | -117.58316 | 11182 ft | 323 kts | 248° |
| 2026-05-07 22:17 | 34.03393 | -117.60757 | 10939 ft | 314 kts | 249° |
| 2026-05-07 22:17 | 34.02530 | -117.63145 | 10644 ft | 308 kts | 250° |
| 2026-05-07 22:18 | 34.01677 | -117.65510 | 10417 ft | 306 kts | 250° |
| 2026-05-07 22:18 | 34.00457 | -117.70331 | 9884 ft | 298 kts | 265° |
| 2026-05-07 22:18 | 34.00208 | -117.72797 | 9438 ft | 296 kts | 268° |
| 2026-05-07 22:19 | 33.99990 | -117.75212 | 9099 ft | 291 kts | 267° |
| 2026-05-07 22:19 | 33.99770 | -117.77606 | 8873 ft | 283 kts | 266° |
| 2026-05-07 22:19 | 33.99548 | -117.79913 | 8716 ft | 272 kts | 265° |
| 2026-05-07 22:19 | 33.99331 | -117.82129 | 8562 ft | 261 kts | 265° |
| 2026-05-07 22:20 | 33.99127 | -117.84263 | 8189 ft | 254 kts | 265° |
| 2026-05-07 22:20 | 33.98925 | -117.86359 | 7784 ft | 249 kts | 266° |
| 2026-05-07 22:20 | 33.98729 | -117.88399 | 7497 ft | 243 kts | 266° |
| 2026-05-07 22:20 | 33.98916 | -117.90388 | 7321 ft | 239 kts | 278° |
| 2026-05-07 22:21 | 33.98882 | -117.92382 | 7012 ft | 239 kts | 261° |
| 2026-05-07 22:21 | 33.98537 | -117.94359 | 6701 ft | 240 kts | 258° |
| 2026-05-07 22:21 | 33.98122 | -117.96265 | 6510 ft | 238 kts | 255° |
| 2026-05-07 22:21 | 33.97782 | -117.98219 | 6272 ft | 237 kts | 263° |
| 2026-05-07 22:22 | 33.97616 | -118.00042 | 6066 ft | 234 kts | 265° |
| 2026-05-07 22:22 | 33.97461 | -118.01994 | 5789 ft | 233 kts | 266° |
| 2026-05-07 22:22 | 33.97328 | -118.03934 | 5485 ft | 231 kts | 266° |
| 2026-05-07 22:22 | 33.97169 | -118.05799 | 5177 ft | 229 kts | 264° |
| 2026-05-07 22:23 | 33.96973 | -118.07711 | 4857 ft | 228 kts | 263° |
| 2026-05-07 22:23 | 33.96738 | -118.09590 | 4528 ft | 226 kts | 261° |
| 2026-05-07 22:23 | 33.96479 | -118.11434 | 4321 ft | 220 kts | 262° |
| 2026-05-07 22:23 | 33.96232 | -118.13240 | 4017 ft | 219 kts | 262° |
| 2026-05-07 22:24 | 33.96046 | -118.15058 | 3704 ft | 219 kts | 266° |
| 2026-05-07 22:24 | 33.95943 | -118.16859 | 3389 ft | 219 kts | 268° |
| 2026-05-07 22:24 | 33.95882 | -118.18685 | 3118 ft | 217 kts | 269° |
| 2026-05-07 22:24 | 33.95702 | -118.20474 | 2900 ft | 213 kts | 260° |
| 2026-05-07 22:25 | 33.95379 | -118.22194 | 2672 ft | 206 kts | 256° |
| 2026-05-07 22:25 | 33.95094 | -118.23819 | 2512 ft | 190 kts | 261° |
| 2026-05-07 22:25 | 33.94908 | -118.25356 | 2473 ft | 183 kts | 265° |
| 2026-05-07 22:25 | 33.94820 | -118.26885 | 2240 ft | 183 kts | 266° |
| 2026-05-07 22:26 | 33.94758 | -118.28380 | 1980 ft | 171 kts | 265° |
| 2026-05-07 22:26 | 33.94622 | -118.29751 | 1700 ft | 162 kts | 261° |
| 2026-05-07 22:26 | 33.94453 | -118.31061 | 1469 ft | 151 kts | 262° |
| 2026-05-07 22:26 | 33.94341 | -118.32259 | 1222 ft | 143 kts | 262° |
| 2026-05-07 22:27 | 33.94253 | -118.33439 | 950 ft | 140 kts | 261° |
| 2026-05-07 22:27 | 33.94116 | -118.34575 | 720 ft | 133 kts | 259° |
| 2026-05-07 22:27 | 33.94008 | -118.35635 | 578 ft | 123 kts | 262° |
| 2026-05-07 22:27 | 33.93893 | -118.36651 | 399 ft | 123 kts | 265° |
| 2026-05-07 22:28 | 33.93797 | -118.37690 | 247 ft | 125 kts | 261° |
| 2026-05-07 22:28 | 33.93691 | -118.38715 | 114 ft | 124 kts | 262° |
| 2026-05-07 22:28 | 33.93596 | -118.39650 | 103 ft | 95 kts | 263° |
| 2026-05-07 22:28 | 33.93533 | -118.40282 | 101 ft | 58 kts | 263° |
| 2026-05-07 22:29 | 33.93491 | -118.40686 | 102 ft | 42 kts | 263° |
| 2026-05-07 22:29 | 33.93486 | -118.40981 | 101 ft | 25 kts | 278° |
| 2026-05-07 22:29 | 33.93518 | -118.41125 | 103 ft | 16 kts | 289° |
| 2026-05-07 22:29 | 33.93548 | -118.41224 | 103 ft | 7 kts | 295° |
| 2026-05-07 22:30 | 33.93550 | -118.41229 | 103 ft | 0 kts | 297° |
| 2026-05-07 22:31 | 33.93565 | -118.41249 | 101 ft | 5 kts | 326° |
| 2026-05-07 22:31 | 33.93617 | -118.41264 | 103 ft | 11 kts | 348° |
| 2026-05-07 22:31 | 33.93700 | -118.41278 | 103 ft | 10 kts | 353° |
| 2026-05-07 22:31 | 33.93751 | -118.41246 | 102 ft | 10 kts | 78° |
| 2026-05-07 22:32 | 33.93766 | -118.41157 | 102 ft | 9 kts | 59° |
| 2026-05-07 22:32 | 33.93813 | -118.41154 | 103 ft | 12 kts | 353° |
| 2026-05-07 22:32 | 33.93921 | -118.41169 | 100 ft | 20 kts | 353° |
| 2026-05-07 22:32 | 33.94063 | -118.41190 | 100 ft | 21 kts | 353° |
| 2026-05-07 22:33 | 33.94214 | -118.41212 | 101 ft | 21 kts | 352° |
| 2026-05-07 22:33 | 33.94344 | -118.41232 | 103 ft | 16 kts | 353° |
| 2026-05-07 22:33 | 33.94428 | -118.41244 | 100 ft | 7 kts | 353° |
| 2026-05-07 22:33 | 33.94451 | -118.41222 | 102 ft | 2 kts | 68° |
| 2026-05-07 22:34 | 33.94455 | -118.41186 | 101 ft | 7 kts | 82° |
| 2026-05-07 22:34 | 33.94459 | -118.41150 | 102 ft | 5 kts | 83° |
| 2026-05-07 22:34 | 33.94460 | -118.41140 | 103 ft | 0 kts | 84° |